Terminal Aerodrome Forecast
Issued by NWS Grand Forks, ND

Home | Current Version | Previous Version | Text Only | Print | Product List | Glossary Off
Versions: 1 2 3 4 5 6 7 8 9 10 11 12 13 14 15 16

000
FTUS43 KFGF 192325
TAFGFK
TAF
KGFK 192325Z 2000/2024 36009KT P6SM OVC080
     FM200600 36010KT P6SM OVC035
      TEMPO 2006/2009 2SM -SN OVC025
     FM200900 36010KT 4SM -SN OVC035
     FM201100 35010KT P6SM -SN OVC040
     FM201600 34011KT P6SM OVC015=

USA.gov is the U.S. government's official web portal to all federal, state and local government web resources and services.